sensor_id;sensor_type;location;lat;lon;timestamp;pressure;altitude;pressure_sealevel;temperature;humidity
37764;BME280;23602;51.084;7.090;2023-02-28T00:01:29;101440.41;;;-2.74;100.00
37764;BME280;23602;51.084;7.090;2023-02-28T00:03:54;101441.44;;;-2.77;100.00
37764;BME280;23602;51.084;7.090;2023-02-28T00:06:20;101445.75;;;-2.76;100.00
37764;BME280;23602;51.084;7.090;2023-02-28T00:08:46;101446.69;;;-2.77;100.00
37764;BME280;23602;51.084;7.090;2023-02-28T00:11:12;101448.22;;;-2.73;100.00
37764;BME280;23602;51.084;7.090;2023-02-28T00:13:39;101454.50;;;-2.75;100.00
37764;BME280;23602;51.084;7.090;2023-02-28T00:16:06;101449.41;;;-2.78;100.00
37764;BME280;23602;51.084;7.090;2023-02-28T00:18:32;101449.41;;;-2.78;100.00
37764;BME280;23602;51.084;7.090;2023-02-28T00:20:58;101451.47;;;-2.83;100.00
37764;BME280;23602;51.084;7.090;2023-02-28T00:23:23;101446.41;;;-2.86;100.00
37764;BME280;23602;51.084;7.090;2023-02-28T00:25:49;101443.88;;;-2.88;100.00
37764;BME280;23602;51.084;7.090;2023-02-28T00:28:14;101437.78;;;-2.88;100.00
37764;BME280;23602;51.084;7.090;2023-02-28T00:30:40;101444.69;;;-2.87;100.00
37764;BME280;23602;51.084;7.090;2023-02-28T00:33:05;101442.84;;;-2.85;100.00
37764;BME280;23602;51.084;7.090;2023-02-28T00:35:31;101450.75;;;-2.85;100.00
37764;BME280;23602;51.084;7.090;2023-02-28T00:37:56;101448.97;;;-2.85;100.00
37764;BME280;23602;51.084;7.090;2023-02-28T00:40:21;101447.53;;;-2.90;100.00
37764;BME280;23602;51.084;7.090;2023-02-28T00:42:47;101446.00;;;-2.94;100.00
37764;BME280;23602;51.084;7.090;2023-02-28T00:45:13;101450.25;;;-2.92;100.00
37764;BME280;23602;51.084;7.090;2023-02-28T00:47:38;101452.03;;;-2.92;100.00
37764;BME280;23602;51.084;7.090;2023-02-28T00:50:15;101440.09;;;-2.98;100.00
37764;BME280;23602;51.084;7.090;2023-02-28T00:52:41;101447.91;;;-2.96;100.00
37764;BME280;23602;51.084;7.090;2023-02-28T00:55:06;101439.34;;;-3.00;100.00
37764;BME280;23602;51.084;7.090;2023-02-28T00:57:32;101448.00;;;-2.98;100.00
37764;BME280;23602;51.084;7.090;2023-02-28T00:59:58;101446.00;;;-2.94;100.00
37764;BME280;23602;51.084;7.090;2023-02-28T01:02:25;101451.84;;;-2.89;100.00
37764;BME280;23602;51.084;7.090;2023-02-28T01:04:50;101452.97;;;-2.79;100.00
37764;BME280;23602;51.084;7.090;2023-02-28T01:07:16;101446.91;;;-2.80;100.00
37764;BME280;23602;51.084;7.090;2023-02-28T01:09:42;101456.75;;;-2.83;100.00
37764;BME280;23602;51.084;7.090;2023-02-28T01:12:08;101458.06;;;-2.76;100.00
37764;BME280;23602;51.084;7.090;2023-02-28T01:14:33;101460.16;;;-2.67;100.00
37764;BME280;23602;51.084;7.090;2023-02-28T01:17:02;101447.19;;;-2.70;100.00
37764;BME280;23602;51.084;7.090;2023-02-28T01:19:27;101441.91;;;-2.56;100.00
37764;BME280;23602;51.084;7.090;2023-02-28T01:21:52;101451.69;;;-2.58;100.00
37764;BME280;23602;51.084;7.090;2023-02-28T01:24:18;101450.09;;;-2.61;100.00
37764;BME280;23602;51.084;7.090;2023-02-28T01:26:44;101460.03;;;-2.66;100.00
37764;BME280;23602;51.084;7.090;2023-02-28T01:29:09;101458.25;;;-2.65;100.00
37764;BME280;23602;51.084;7.090;2023-02-28T01:31:34;101458.56;;;-2.70;100.00
37764;BME280;23602;51.084;7.090;2023-02-28T01:34:00;101457.78;;;-2.72;100.00
37764;BME280;23602;51.084;7.090;2023-02-28T01:36:25;101453.81;;;-2.79;100.00
37764;BME280;23602;51.084;7.090;2023-02-28T01:38:50;101449.53;;;-2.80;100.00
37764;BME280;23602;51.084;7.090;2023-02-28T01:41:19;101450.34;;;-2.79;100.00
37764;BME280;23602;51.084;7.090;2023-02-28T01:46:10;101446.34;;;-2.85;100.00
37764;BME280;23602;51.084;7.090;2023-02-28T01:48:36;101445.66;;;-2.88;100.00
37764;BME280;23602;51.084;7.090;2023-02-28T01:51:05;101439.44;;;-2.87;100.00
37764;BME280;23602;51.084;7.090;2023-02-28T01:53:33;101426.50;;;-2.90;100.00
37764;BME280;23602;51.084;7.090;2023-02-28T01:55:59;101424.78;;;-2.91;100.00
37764;BME280;23602;51.084;7.090;2023-02-28T01:58:25;101423.09;;;-2.92;100.00
37764;BME280;23602;51.084;7.090;2023-02-28T02:00:50;101420.69;;;-2.95;100.00
37764;BME280;23602;51.084;7.090;2023-02-28T02:03:17;101425.09;;;-2.96;100.00
37764;BME280;23602;51.084;7.090;2023-02-28T02:05:46;101415.78;;;-3.01;100.00
37764;BME280;23602;51.084;7.090;2023-02-28T02:08:22;101418.69;;;-3.06;100.00
37764;BME280;23602;51.084;7.090;2023-02-28T02:10:52;101407.66;;;-3.12;100.00
37764;BME280;23602;51.084;7.090;2023-02-28T02:13:21;101413.22;;;-3.17;100.00
37764;BME280;23602;51.084;7.090;2023-02-28T02:18:43;101411.78;;;-3.23;100.00
37764;BME280;23602;51.084;7.090;2023-02-28T02:34:51;101401.13;;;-3.05;100.00
37764;BME280;23602;51.084;7.090;2023-02-28T02:37:25;101409.03;;;-3.05;100.00
37764;BME280;23602;51.084;7.090;2023-02-28T02:42:35;101406.75;;;-3.11;100.00
37764;BME280;23602;51.084;7.090;2023-02-28T02:45:06;101410.84;;;-3.22;100.00
37764;BME280;23602;51.084;7.090;2023-02-28T02:47:34;101403.31;;;-3.28;100.00
37764;BME280;23602;51.084;7.090;2023-02-28T02:50:01;101396.00;;;-3.37;100.00
37764;BME280;23602;51.084;7.090;2023-02-28T02:52:37;101397.94;;;-3.40;100.00
37764;BME280;23602;51.084;7.090;2023-02-28T02:55:06;101396.53;;;-3.46;100.00
37764;BME280;23602;51.084;7.090;2023-02-28T02:57:55;101410.44;;;-3.44;100.00
37764;BME280;23602;51.084;7.090;2023-02-28T03:00:20;101402.31;;;-3.55;100.00
37764;BME280;23602;51.084;7.090;2023-02-28T03:02:48;101404.47;;;-3.61;100.00
37764;BME280;23602;51.084;7.090;2023-02-28T03:05:17;101401.84;;;-3.61;100.00
37764;BME280;23602;51.084;7.090;2023-02-28T03:07:44;101405.66;;;-3.67;100.00
37764;BME280;23602;51.084;7.090;2023-02-28T03:12:56;101412.13;;;-3.72;100.00
37764;BME280;23602;51.084;7.090;2023-02-28T03:15:31;101403.56;;;-3.76;100.00
37764;BME280;23602;51.084;7.090;2023-02-28T03:18:04;101407.72;;;-3.72;100.00
37764;BME280;23602;51.084;7.090;2023-02-28T03:20:46;101402.38;;;-3.70;100.00
37764;BME280;23602;51.084;7.090;2023-02-28T03:23:18;101402.28;;;-3.69;100.00
37764;BME280;23602;51.084;7.090;2023-02-28T03:25:53;101386.19;;;-3.78;100.00
37764;BME280;23602;51.084;7.090;2023-02-28T03:30:50;101402.38;;;-3.70;100.00
37764;BME280;23602;51.084;7.090;2023-02-28T03:33:23;101389.22;;;-3.70;100.00
37764;BME280;23602;51.084;7.090;2023-02-28T03:35:55;101395.44;;;-3.71;100.00
37764;BME280;23602;51.084;7.090;2023-02-28T03:38:27;101404.06;;;-3.69;100.00
37764;BME280;23602;51.084;7.090;2023-02-28T03:41:05;101405.75;;;-3.68;100.00
37764;BME280;23602;51.084;7.090;2023-02-28T03:43:32;101408.88;;;-3.62;100.00
37764;BME280;23602;51.084;7.090;2023-02-28T03:46:00;101410.38;;;-3.58;100.00
37764;BME280;23602;51.084;7.090;2023-02-28T03:48:40;101415.47;;;-3.55;100.00
37764;BME280;23602;51.084;7.090;2023-02-28T03:51:12;101417.81;;;-3.50;100.00
37764;BME280;23602;51.084;7.090;2023-02-28T03:53:42;101417.19;;;-3.40;100.00
37764;BME280;23602;51.084;7.090;2023-02-28T03:56:17;101420.56;;;-3.38;100.00
37764;BME280;23602;51.084;7.090;2023-02-28T03:58:45;101422.38;;;-3.38;100.00
37764;BME280;23602;51.084;7.090;2023-02-28T04:01:17;101425.75;;;-3.36;100.00
37764;BME280;23602;51.084;7.090;2023-02-28T04:03:44;101420.41;;;-3.35;100.00
37764;BME280;23602;51.084;7.090;2023-02-28T04:06:15;101416.78;;;-3.18;100.00
37764;BME280;23602;51.084;7.090;2023-02-28T04:08:40;101411.59;;;-3.20;100.00
37764;BME280;23602;51.084;7.090;2023-02-28T04:13:51;101414.06;;;-3.16;100.00
37764;BME280;23602;51.084;7.090;2023-02-28T04:16:17;101414.97;;;-3.17;100.00
37764;BME280;23602;51.084;7.090;2023-02-28T04:18:42;101408.97;;;-3.20;100.00
37764;BME280;23602;51.084;7.090;2023-02-28T04:21:10;101410.03;;;-3.08;100.00
37764;BME280;23602;51.084;7.090;2023-02-28T04:23:36;101400.75;;;-2.99;100.00
37764;BME280;23602;51.084;7.090;2023-02-28T04:26:01;101384.59;;;-2.79;100.00
37764;BME280;23602;51.084;7.090;2023-02-28T04:28:27;101391.81;;;-2.69;100.00
37764;BME280;23602;51.084;7.090;2023-02-28T04:30:59;101387.03;;;-2.76;100.00
37764;BME280;23602;51.084;7.090;2023-02-28T04:33:24;101407.50;;;-2.81;100.00
37764;BME280;23602;51.084;7.090;2023-02-28T04:35:59;101395.97;;;-2.79;100.00
37764;BME280;23602;51.084;7.090;2023-02-28T04:38:25;101398.03;;;-2.84;100.00
37764;BME280;23602;51.084;7.090;2023-02-28T04:40:50;101394.47;;;-2.83;100.00
37764;BME280;23602;51.084;7.090;2023-02-28T04:43:15;101395.75;;;-2.90;100.00
37764;BME280;23602;51.084;7.090;2023-02-28T04:45:43;101403.09;;;-2.95;100.00
37764;BME280;23602;51.084;7.090;2023-02-28T04:48:08;101405.63;;;-2.79;100.00
37764;BME280;23602;51.084;7.090;2023-02-28T04:50:34;101401.50;;;-2.83;100.00
37764;BME280;23602;51.084;7.090;2023-02-28T04:53:00;101399.44;;;-2.78;100.00
37764;BME280;23602;51.084;7.090;2023-02-28T04:55:34;101397.09;;;-2.83;100.00
37764;BME280;23602;51.084;7.090;2023-02-28T04:57:59;101393.50;;;-2.82;100.00
37764;BME280;23602;51.084;7.090;2023-02-28T05:00:24;101402.25;;;-2.81;100.00
37764;BME280;23602;51.084;7.090;2023-02-28T05:02:50;101407.88;;;-2.87;100.00
37764;BME280;23602;51.084;7.090;2023-02-28T05:05:16;101404.78;;;-2.94;100.00
37764;BME280;23602;51.084;7.090;2023-02-28T05:07:43;101402.34;;;-2.97;100.00
37764;BME280;23602;51.084;7.090;2023-02-28T05:10:08;101409.59;;;-3.00;100.00
37764;BME280;23602;51.084;7.090;2023-02-28T05:12:34;101407.31;;;-3.06;100.00
37764;BME280;23602;51.084;7.090;2023-02-28T05:14:59;101422.25;;;-3.07;100.00
37764;BME280;23602;51.084;7.090;2023-02-28T05:17:26;101409.22;;;-2.80;100.00
37764;BME280;23602;51.084;7.090;2023-02-28T05:19:51;101412.50;;;-2.77;100.00
37764;BME280;23602;51.084;7.090;2023-02-28T05:22:16;101412.78;;;-2.81;100.00
37764;BME280;23602;51.084;7.090;2023-02-28T05:24:42;101415.78;;;-2.87;100.00
37764;BME280;23602;51.084;7.090;2023-02-28T05:27:16;101420.69;;;-2.95;100.00
37764;BME280;23602;51.084;7.090;2023-02-28T05:29:41;101429.66;;;-2.99;100.00
37764;BME280;23602;51.084;7.090;2023-02-28T05:32:11;101413.53;;;-2.93;100.00
37764;BME280;23602;51.084;7.090;2023-02-28T05:34:37;101414.56;;;-2.96;100.00
37764;BME280;23602;51.084;7.090;2023-02-28T05:37:03;101417.94;;;-2.94;100.00
37764;BME280;23602;51.084;7.090;2023-02-28T05:39:28;101410.72;;;-2.76;100.00
37764;BME280;23602;51.084;7.090;2023-02-28T05:41:53;101419.75;;;-2.80;100.00
37764;BME280;23602;51.084;7.090;2023-02-28T05:44:19;101418.59;;;-2.90;100.00
37764;BME280;23602;51.084;7.090;2023-02-28T05:46:44;101418.78;;;-2.93;100.00
37764;BME280;23602;51.084;7.090;2023-02-28T05:49:09;101413.03;;;-3.00;100.00
37764;BME280;23602;51.084;7.090;2023-02-28T05:51:34;101418.00;;;-3.09;100.00
37764;BME280;23602;51.084;7.090;2023-02-28T05:54:01;101426.34;;;-3.17;100.00
37764;BME280;23602;51.084;7.090;2023-02-28T05:56:26;101433.94;;;-3.27;100.00
37764;BME280;23602;51.084;7.090;2023-02-28T05:58:52;101418.97;;;-3.40;100.00
37764;BME280;23602;51.084;7.090;2023-02-28T06:03:48;101424.09;;;-3.53;100.00
37764;BME280;23602;51.084;7.090;2023-02-28T06:06:14;101424.94;;;-3.52;100.00
37764;BME280;23602;51.084;7.090;2023-02-28T06:08:39;101415.47;;;-3.55;100.00
37764;BME280;23602;51.084;7.090;2023-02-28T06:11:04;101422.75;;;-3.60;100.00
37764;BME280;23602;51.084;7.090;2023-02-28T06:13:30;101427.34;;;-3.63;100.00
37764;BME280;23602;51.084;7.090;2023-02-28T06:15:56;101422.63;;;-3.72;100.00
37764;BME280;23602;51.084;7.090;2023-02-28T06:18:21;101431.94;;;-3.67;100.00
37764;BME280;23602;51.084;7.090;2023-02-28T06:20:53;101437.34;;;-3.70;100.00
37764;BME280;23602;51.084;7.090;2023-02-28T06:23:22;101439.13;;;-3.70;100.00
37764;BME280;23602;51.084;7.090;2023-02-28T06:25:47;101440.09;;;-3.71;100.00
37764;BME280;23602;51.084;7.090;2023-02-28T06:28:13;101442.78;;;-3.73;100.00
37764;BME280;23602;51.084;7.090;2023-02-28T06:30:38;101439.13;;;-3.70;100.00
37764;BME280;23602;51.084;7.090;2023-02-28T06:33:04;101442.63;;;-3.70;100.00
37764;BME280;23602;51.084;7.090;2023-02-28T06:35:29;101451.25;;;-3.68;100.00
37764;BME280;23602;51.084;7.090;2023-02-28T06:37:55;101455.66;;;-3.68;100.00
37764;BME280;23602;51.084;7.090;2023-02-28T06:40:20;101456.31;;;-3.65;100.00
37764;BME280;23602;51.084;7.090;2023-02-28T06:42:48;101456.31;;;-3.65;100.00
37764;BME280;23602;51.084;7.090;2023-02-28T06:45:16;101455.41;;;-3.64;100.00
37764;BME280;23602;51.084;7.090;2023-02-28T06:47:42;101466.75;;;-3.63;100.00
37764;BME280;23602;51.084;7.090;2023-02-28T06:50:09;101465.13;;;-3.66;100.00
37764;BME280;23602;51.084;7.090;2023-02-28T06:52:45;101469.19;;;-3.60;100.00
37764;BME280;23602;51.084;7.090;2023-02-28T06:55:23;101481.31;;;-3.58;100.00
37764;BME280;23602;51.084;7.090;2023-02-28T06:57:48;101476.06;;;-3.58;100.00
37764;BME280;23602;51.084;7.090;2023-02-28T07:00:15;101478.63;;;-3.56;100.00
37764;BME280;23602;51.084;7.090;2023-02-28T07:02:41;101479.28;;;-3.53;100.00
37764;BME280;23602;51.084;7.090;2023-02-28T07:05:09;101479.19;;;-3.51;100.00
37764;BME280;23602;51.084;7.090;2023-02-28T07:07:40;101481.72;;;-3.50;100.00
37764;BME280;23602;51.084;7.090;2023-02-28T07:10:09;101482.31;;;-3.45;100.00
37764;BME280;23602;51.084;7.090;2023-02-28T07:12:35;101477.97;;;-3.46;100.00
37764;BME280;23602;51.084;7.090;2023-02-28T07:15:01;101488.31;;;-3.43;100.00
37764;BME280;23602;51.084;7.090;2023-02-28T07:17:28;101488.16;;;-3.40;100.00
37764;BME280;23602;51.084;7.090;2023-02-28T07:19:53;101487.22;;;-3.39;100.00
37764;BME280;23602;51.084;7.090;2023-02-28T07:22:18;101486.69;;;-3.30;100.00
37764;BME280;23602;51.084;7.090;2023-02-28T07:24:51;101481.84;;;-3.22;100.00
37764;BME280;23602;51.084;7.090;2023-02-28T07:27:17;101485.97;;;-3.17;100.00
37764;BME280;23602;51.084;7.090;2023-02-28T07:29:49;101492.00;;;-3.15;100.00
37764;BME280;23602;51.084;7.090;2023-02-28T07:32:14;101482.81;;;-3.08;100.00
37764;BME280;23602;51.084;7.090;2023-02-28T07:34:39;101483.28;;;-3.02;100.00
37764;BME280;23602;51.084;7.090;2023-02-28T07:37:05;101485.06;;;-3.02;100.00
37764;BME280;23602;51.084;7.090;2023-02-28T07:39:30;101490.06;;;-2.98;100.00
37764;BME280;23602;51.084;7.090;2023-02-28T07:41:56;101495.97;;;-2.94;100.00
37764;BME280;23602;51.084;7.090;2023-02-28T07:44:21;101479.28;;;-2.79;100.00
37764;BME280;23602;51.084;7.090;2023-02-28T07:46:47;101485.03;;;-2.73;100.00
37764;BME280;23602;51.084;7.090;2023-02-28T07:49:15;101480.81;;;-2.47;100.00
37764;BME280;23602;51.084;7.090;2023-02-28T07:51:40;101482.50;;;-2.46;100.00
37764;BME280;23602;51.084;7.090;2023-02-28T07:54:06;101475.66;;;-2.34;100.00
37764;BME280;23602;51.084;7.090;2023-02-28T07:56:32;101475.06;;;-2.11;100.00
37764;BME280;23602;51.084;7.090;2023-02-28T07:58:58;101479.06;;;-1.92;100.00
37764;BME280;23602;51.084;7.090;2023-02-28T08:01:30;101473.69;;;-1.90;100.00
37764;BME280;23602;51.084;7.090;2023-02-28T08:04:15;101475.66;;;-1.79;100.00
37764;BME280;23602;51.084;7.090;2023-02-28T08:06:41;101469.94;;;-1.59;100.00
37764;BME280;23602;51.084;7.090;2023-02-28T08:09:06;101474.56;;;-1.63;100.00
37764;BME280;23602;51.084;7.090;2023-02-28T08:11:32;101479.72;;;-1.61;100.00
37764;BME280;23602;51.084;7.090;2023-02-28T08:13:57;101477.91;;;-1.34;100.00
37764;BME280;23602;51.084;7.090;2023-02-28T08:16:22;101472.63;;;-1.07;100.00
37764;BME280;23602;51.084;7.090;2023-02-28T08:18:48;101482.75;;;-1.01;100.00
37764;BME280;23602;51.084;7.090;2023-02-28T08:21:14;101474.22;;;-0.92;100.00
37764;BME280;23602;51.084;7.090;2023-02-28T08:23:40;101481.09;;;-0.77;100.00
37764;BME280;23602;51.084;7.090;2023-02-28T08:26:05;101477.47;;;-0.89;100.00
37764;BME280;23602;51.084;7.090;2023-02-28T08:28:30;101472.34;;;-0.65;100.00
37764;BME280;23602;51.084;7.090;2023-02-28T08:30:56;101475.63;;;-0.61;100.00
37764;BME280;23602;51.084;7.090;2023-02-28T08:33:22;101470.53;;;-0.65;100.00
37764;BME280;23602;51.084;7.090;2023-02-28T08:35:47;101477.72;;;-0.54;100.00
37764;BME280;23602;51.084;7.090;2023-02-28T08:38:13;101476.00;;;-0.42;100.00
37764;BME280;23602;51.084;7.090;2023-02-28T08:40:38;101486.78;;;-0.45;100.00
37764;BME280;23602;51.084;7.090;2023-02-28T08:43:03;101488.06;;;-0.38;100.00
37764;BME280;23602;51.084;7.090;2023-02-28T08:45:31;101482.97;;;-0.29;100.00
37764;BME280;23602;51.084;7.090;2023-02-28T08:47:57;101471.91;;;0.15;100.00
37764;BME280;23602;51.084;7.090;2023-02-28T08:50:22;101473.78;;;0.13;100.00
37764;BME280;23602;51.084;7.090;2023-02-28T08:52:48;101482.78;;;0.11;100.00
37764;BME280;23602;51.084;7.090;2023-02-28T08:55:13;101476.00;;;0.19;100.00
37764;BME280;23602;51.084;7.090;2023-02-28T08:57:39;101476.81;;;0.32;100.00
37764;BME280;23602;51.084;7.090;2023-02-28T09:00:07;101472.75;;;0.39;86.73
37764;BME280;23602;51.084;7.090;2023-02-28T09:02:32;101472.31;;;0.45;97.88
37764;BME280;23602;51.084;7.090;2023-02-28T09:04:58;101473.41;;;0.54;96.61
37764;BME280;23602;51.084;7.090;2023-02-28T09:07:23;101473.97;;;0.70;100.00
37764;BME280;23602;51.084;7.090;2023-02-28T09:09:48;101463.31;;;0.83;82.28
37764;BME280;23602;51.084;7.090;2023-02-28T09:12:21;101473.69;;;0.97;76.39
37764;BME280;23602;51.084;7.090;2023-02-28T09:14:46;101461.34;;;1.08;72.48
37764;BME280;23602;51.084;7.090;2023-02-28T09:17:12;101463.19;;;1.30;74.04
37764;BME280;23602;51.084;7.090;2023-02-28T09:19:37;101446.97;;;1.57;71.64
37764;BME280;23602;51.084;7.090;2023-02-28T09:22:02;101461.06;;;1.57;69.14
37764;BME280;23602;51.084;7.090;2023-02-28T09:24:28;101467.81;;;1.72;78.67
37764;BME280;23602;51.084;7.090;2023-02-28T09:26:53;101457.47;;;1.80;67.49
37764;BME280;23602;51.084;7.090;2023-02-28T09:29:19;101455.00;;;2.11;74.72
37764;BME280;23602;51.084;7.090;2023-02-28T09:31:44;101442.56;;;2.22;65.22
37764;BME280;23602;51.084;7.090;2023-02-28T09:34:10;101439.38;;;2.39;69.98
37764;BME280;23602;51.084;7.090;2023-02-28T09:36:36;101443.53;;;2.64;65.19
37764;BME280;23602;51.084;7.090;2023-02-28T09:39:03;101442.75;;;2.73;61.17
37764;BME280;23602;51.084;7.090;2023-02-28T09:41:32;101449.50;;;2.45;59.38
37764;BME280;23602;51.084;7.090;2023-02-28T09:44:02;101450.28;;;2.57;60.13
37764;BME280;23602;51.084;7.090;2023-02-28T09:49:11;101452.34;;;3.27;64.85
37764;BME280;23602;51.084;7.090;2023-02-28T09:54:36;101451.69;;;3.34;59.77
37764;BME280;23602;51.084;7.090;2023-02-28T09:57:05;101453.63;;;3.32;58.42
37764;BME280;23602;51.084;7.090;2023-02-28T10:04:50;101444.19;;;4.19;58.76
37764;BME280;23602;51.084;7.090;2023-02-28T10:12:53;101437.66;;;5.55;58.07
37764;BME280;23602;51.084;7.090;2023-02-28T10:15:19;101441.88;;;5.95;55.77
37764;BME280;23602;51.084;7.090;2023-02-28T10:17:47;101435.78;;;6.02;55.84
37764;BME280;23602;51.084;7.090;2023-02-28T10:20:20;101439.66;;;5.81;50.14
37764;BME280;23602;51.084;7.090;2023-02-28T10:23:31;101442.03;;;5.37;48.52
37764;BME280;23602;51.084;7.090;2023-02-28T10:25:35;101439.78;;;4.67;51.02
37764;BME280;23602;51.084;7.090;2023-02-28T10:28:09;101439.13;;;4.16;52.14
37764;BME280;23602;51.084;7.090;2023-02-28T10:30:36;101443.25;;;3.90;55.99
37764;BME280;23602;51.084;7.090;2023-02-28T10:33:04;101442.34;;;3.70;55.84
37764;BME280;23602;51.084;7.090;2023-02-28T10:35:29;101435.41;;;3.78;54.61
37764;BME280;23602;51.084;7.090;2023-02-28T10:37:56;101432.44;;;3.21;54.29
37764;BME280;23602;51.084;7.090;2023-02-28T10:45:21;101432.25;;;3.13;59.87
37764;BME280;23602;51.084;7.090;2023-02-28T10:47:49;101429.13;;;3.29;58.46
37764;BME280;23602;51.084;7.090;2023-02-28T10:55:41;101418.00;;;3.65;56.07
37764;BME280;23602;51.084;7.090;2023-02-28T10:58:22;101425.63;;;3.89;59.02
37764;BME280;23602;51.084;7.090;2023-02-28T11:00:48;101406.63;;;3.53;54.55
37764;BME280;23602;51.084;7.090;2023-02-28T11:03:30;101417.47;;;3.71;59.85
37764;BME280;23602;51.084;7.090;2023-02-28T11:05:56;101416.88;;;3.67;58.05
37764;BME280;23602;51.084;7.090;2023-02-28T11:08:21;101417.78;;;3.87;63.19
37764;BME280;23602;51.084;7.090;2023-02-28T11:10:47;101415.50;;;3.73;58.52
37764;BME280;23602;51.084;7.090;2023-02-28T11:13:16;101418.03;;;3.74;65.19
37764;BME280;23602;51.084;7.090;2023-02-28T11:15:49;101424.16;;;3.65;56.97
37764;BME280;23602;51.084;7.090;2023-02-28T11:20:41;101418.91;;;3.54;57.96
37764;BME280;23602;51.084;7.090;2023-02-28T11:23:10;101410.94;;;3.24;57.23
37764;BME280;23602;51.084;7.090;2023-02-28T11:25:37;101405.19;;;3.49;58.85
37764;BME280;23602;51.084;7.090;2023-02-28T11:28:04;101399.47;;;3.54;57.06
37764;BME280;23602;51.084;7.090;2023-02-28T11:30:35;101403.34;;;3.80;58.31
37764;BME280;23602;51.084;7.090;2023-02-28T11:33:14;101414.38;;;3.66;57.62
37764;BME280;23602;51.084;7.090;2023-02-28T11:35:44;101405.56;;;3.35;54.71
37764;BME280;23602;51.084;7.090;2023-02-28T11:38:12;101398.06;;;3.50;57.51
37764;BME280;23602;51.084;7.090;2023-02-28T11:43:25;101403.97;;;4.12;60.60
37764;BME280;23602;51.084;7.090;2023-02-28T11:56:43;101389.31;;;4.56;58.51
37764;BME280;23602;51.084;7.090;2023-02-28T12:12:41;101388.66;;;5.20;55.63
37764;BME280;23602;51.084;7.090;2023-02-28T12:17:52;101392.38;;;4.32;56.83
37764;BME280;23602;51.084;7.090;2023-02-28T12:20:30;101396.16;;;4.11;57.82
37764;BME280;23602;51.084;7.090;2023-02-28T12:23:07;101392.22;;;4.15;59.13
37764;BME280;23602;51.084;7.090;2023-02-28T12:28:12;101375.16;;;4.17;54.64
37764;BME280;23602;51.084;7.090;2023-02-28T12:30:39;101376.13;;;4.35;55.61
37764;BME280;23602;51.084;7.090;2023-02-28T12:33:12;101373.34;;;4.46;60.41
37764;BME280;23602;51.084;7.090;2023-02-28T12:35:55;101363.69;;;4.45;55.59
37764;BME280;23602;51.084;7.090;2023-02-28T12:38:25;101351.34;;;4.06;52.89
37764;BME280;23602;51.084;7.090;2023-02-28T12:40:53;101358.63;;;4.14;55.02
37764;BME280;23602;51.084;7.090;2023-02-28T12:43:19;101351.22;;;4.46;55.04
37764;BME280;23602;51.084;7.090;2023-02-28T12:45:56;101346.69;;;4.66;57.34
37764;BME280;23602;51.084;7.090;2023-02-28T12:48:30;101339.84;;;4.73;57.28
37764;BME280;23602;51.084;7.090;2023-02-28T12:50:57;101327.44;;;4.91;58.28
37764;BME280;23602;51.084;7.090;2023-02-28T12:58:43;101326.84;;;5.16;53.38
37764;BME280;23602;51.084;7.090;2023-02-28T13:06:47;101300.78;;;5.10;53.31
37764;BME280;23602;51.084;7.090;2023-02-28T13:09:05;101311.72;;;5.07;52.93
37764;BME280;23602;51.084;7.090;2023-02-28T13:11:40;101317.16;;;5.15;55.23
37764;BME280;23602;51.084;7.090;2023-02-28T13:14:19;101311.03;;;5.05;51.93
37764;BME280;23602;51.084;7.090;2023-02-28T13:19:30;101314.47;;;4.69;52.32
37764;BME280;23602;51.084;7.090;2023-02-28T13:21:56;101308.44;;;4.76;54.69
37764;BME280;23602;51.084;7.090;2023-02-28T13:27:34;101301.66;;;4.91;52.73
37764;BME280;23602;51.084;7.090;2023-02-28T13:33:17;101299.06;;;5.09;54.77
37764;BME280;23602;51.084;7.090;2023-02-28T13:35:38;101296.56;;;5.07;53.88
37764;BME280;23602;51.084;7.090;2023-02-28T13:38:15;101299.28;;;4.98;53.17
37764;BME280;23602;51.084;7.090;2023-02-28T13:40:41;101295.44;;;5.10;55.97
37764;BME280;23602;51.084;7.090;2023-02-28T13:43:07;101293.06;;;5.07;52.13
37764;BME280;23602;51.084;7.090;2023-02-28T13:45:33;101288.97;;;5.13;53.76
37764;BME280;23602;51.084;7.090;2023-02-28T13:48:25;101283.88;;;5.19;55.36
37764;BME280;23602;51.084;7.090;2023-02-28T13:50:49;101296.47;;;5.27;55.72
37764;BME280;23602;51.084;7.090;2023-02-28T13:55:44;101285.91;;;5.07;51.97
37764;BME280;23602;51.084;7.090;2023-02-28T14:01:07;101278.31;;;5.13;55.00
37764;BME280;23602;51.084;7.090;2023-02-28T14:06:25;101274.09;;;4.83;51.95
37764;BME280;23602;51.084;7.090;2023-02-28T14:11:40;101269.69;;;4.91;52.29
37764;BME280;23602;51.084;7.090;2023-02-28T14:14:06;101261.81;;;4.99;55.05
37764;BME280;23602;51.084;7.090;2023-02-28T14:16:42;101265.06;;;5.03;58.46
37764;BME280;23602;51.084;7.090;2023-02-28T14:19:13;101266.03;;;5.02;51.66
37764;BME280;23602;51.084;7.090;2023-02-28T14:21:46;101271.06;;;5.05;52.56
37764;BME280;23602;51.084;7.090;2023-02-28T14:34:56;101267.09;;;5.09;55.37
37764;BME280;23602;51.084;7.090;2023-02-28T14:37:27;101269.78;;;5.09;55.71
37764;BME280;23602;51.084;7.090;2023-02-28T14:40:04;101266.41;;;5.07;54.12
37764;BME280;23602;51.084;7.090;2023-02-28T14:42:34;101259.84;;;5.01;51.91
37764;BME280;23602;51.084;7.090;2023-02-28T14:44:59;101266.91;;;4.93;52.77
37764;BME280;23602;51.084;7.090;2023-02-28T14:47:27;101258.19;;;4.91;54.54
37764;BME280;23602;51.084;7.090;2023-02-28T14:49:52;101254.84;;;4.89;52.78
37764;BME280;23602;51.084;7.090;2023-02-28T14:52:21;101256.16;;;4.85;58.64
37764;BME280;23602;51.084;7.090;2023-02-28T14:54:54;101259.50;;;4.87;52.37
37764;BME280;23602;51.084;7.090;2023-02-28T14:57:23;101253.22;;;4.78;54.04
37764;BME280;23602;51.084;7.090;2023-02-28T15:02:29;101262.75;;;4.71;56.25
37764;BME280;23602;51.084;7.090;2023-02-28T15:04:57;101258.28;;;4.72;51.91
37764;BME280;23602;51.084;7.090;2023-02-28T15:07:23;101258.31;;;4.62;51.62
37764;BME280;23602;51.084;7.090;2023-02-28T15:10:09;101258.72;;;4.58;53.14